sensor_id;sensor_type;location;lat;lon;timestamp;P1;durP1;ratioP1;P2;durP2;ratioP2
31043;SDS011;17710;52.520;13.352;2023-02-04T00:01:04;4.18;;;1.35;;
31043;SDS011;17710;52.520;13.352;2023-02-04T00:03:31;3.83;;;1.17;;
31043;SDS011;17710;52.520;13.352;2023-02-04T00:05:57;5.70;;;1.52;;
31043;SDS011;17710;52.520;13.352;2023-02-04T00:08:25;3.35;;;1.20;;
31043;SDS011;17710;52.520;13.352;2023-02-04T00:10:51;4.38;;;1.80;;
31043;SDS011;17710;52.520;13.352;2023-02-04T00:13:18;4.55;;;1.85;;
31043;SDS011;17710;52.520;13.352;2023-02-04T00:15:44;2.25;;;1.30;;
31043;SDS011;17710;52.520;13.352;2023-02-04T00:18:11;1.20;;;0.93;;
31043;SDS011;17710;52.520;13.352;2023-02-04T00:20:37;5.55;;;1.73;;
31043;SDS011;17710;52.520;13.352;2023-02-04T00:23:04;3.33;;;1.30;;
31043;SDS011;17710;52.520;13.352;2023-02-04T00:25:31;2.38;;;0.98;;
31043;SDS011;17710;52.520;13.352;2023-02-04T00:27:58;4.60;;;1.13;;
31043;SDS011;17710;52.520;13.352;2023-02-04T00:30:27;3.10;;;1.17;;
31043;SDS011;17710;52.520;13.352;2023-02-04T00:32:53;3.10;;;1.92;;
31043;SDS011;17710;52.520;13.352;2023-02-04T00:35:21;3.15;;;1.15;;
31043;SDS011;17710;52.520;13.352;2023-02-04T00:37:47;4.10;;;0.98;;
31043;SDS011;17710;52.520;13.352;2023-02-04T00:40:14;2.22;;;1.15;;
31043;SDS011;17710;52.520;13.352;2023-02-04T00:42:42;1.65;;;0.63;;
31043;SDS011;17710;52.520;13.352;2023-02-04T00:45:08;2.05;;;1.00;;
31043;SDS011;17710;52.520;13.352;2023-02-04T00:47:36;2.15;;;0.85;;
31043;SDS011;17710;52.520;13.352;2023-02-04T00:50:03;2.20;;;0.88;;
31043;SDS011;17710;52.520;13.352;2023-02-04T00:52:30;1.35;;;0.63;;
31043;SDS011;17710;52.520;13.352;2023-02-04T00:54:57;2.13;;;0.63;;
31043;SDS011;17710;52.520;13.352;2023-02-04T00:57:23;2.17;;;0.90;;
31043;SDS011;17710;52.520;13.352;2023-02-04T00:59:51;2.63;;;0.93;;
31043;SDS011;17710;52.520;13.352;2023-02-04T01:02:17;3.08;;;0.73;;
31043;SDS011;17710;52.520;13.352;2023-02-04T01:04:44;2.28;;;0.90;;
31043;SDS011;17710;52.520;13.352;2023-02-04T01:07:10;3.00;;;0.90;;
31043;SDS011;17710;52.520;13.352;2023-02-04T01:09:37;4.13;;;1.25;;
31043;SDS011;17710;52.520;13.352;2023-02-04T01:12:03;2.60;;;0.88;;
31043;SDS011;17710;52.520;13.352;2023-02-04T01:14:30;2.33;;;1.00;;
31043;SDS011;17710;52.520;13.352;2023-02-04T01:16:57;6.43;;;1.00;;
31043;SDS011;17710;52.520;13.352;2023-02-04T01:19:24;3.05;;;1.15;;
31043;SDS011;17710;52.520;13.352;2023-02-04T01:21:50;1.55;;;0.90;;
31043;SDS011;17710;52.520;13.352;2023-02-04T01:24:17;2.65;;;0.90;;
31043;SDS011;17710;52.520;13.352;2023-02-04T01:26:43;2.80;;;0.93;;
31043;SDS011;17710;52.520;13.352;2023-02-04T01:29:09;1.65;;;0.70;;
31043;SDS011;17710;52.520;13.352;2023-02-04T01:31:36;0.90;;;0.90;;
31043;SDS011;17710;52.520;13.352;2023-02-04T01:34:04;1.42;;;0.80;;
31043;SDS011;17710;52.520;13.352;2023-02-04T01:36:31;2.72;;;0.93;;
31043;SDS011;17710;52.520;13.352;2023-02-04T01:38:57;4.95;;;1.15;;
31043;SDS011;17710;52.520;13.352;2023-02-04T01:41:25;1.33;;;0.70;;
31043;SDS011;17710;52.520;13.352;2023-02-04T01:43:52;2.60;;;0.88;;
31043;SDS011;17710;52.520;13.352;2023-02-04T01:46:19;2.00;;;0.93;;
31043;SDS011;17710;52.520;13.352;2023-02-04T01:48:45;2.67;;;0.77;;
31043;SDS011;17710;52.520;13.352;2023-02-04T01:51:13;1.00;;;0.60;;
31043;SDS011;17710;52.520;13.352;2023-02-04T01:53:42;3.10;;;0.80;;
31043;SDS011;17710;52.520;13.352;2023-02-04T01:56:14;4.97;;;1.08;;
31043;SDS011;17710;52.520;13.352;2023-02-04T01:58:42;2.75;;;0.73;;
31043;SDS011;17710;52.520;13.352;2023-02-04T02:01:09;4.55;;;0.90;;
31043;SDS011;17710;52.520;13.352;2023-02-04T02:03:56;1.70;;;0.75;;
31043;SDS011;17710;52.520;13.352;2023-02-04T02:06:24;3.58;;;0.73;;
31043;SDS011;17710;52.520;13.352;2023-02-04T02:08:51;1.17;;;0.60;;
31043;SDS011;17710;52.520;13.352;2023-02-04T02:11:17;1.33;;;0.40;;
31043;SDS011;17710;52.520;13.352;2023-02-04T02:13:44;3.17;;;0.68;;
31043;SDS011;17710;52.520;13.352;2023-02-04T02:16:10;3.50;;;1.25;;
31043;SDS011;17710;52.520;13.352;2023-02-04T02:18:37;2.17;;;0.50;;
31043;SDS011;17710;52.520;13.352;2023-02-04T02:21:04;0.73;;;0.60;;
31043;SDS011;17710;52.520;13.352;2023-02-04T02:23:44;3.22;;;1.00;;
31043;SDS011;17710;52.520;13.352;2023-02-04T02:26:12;5.13;;;0.70;;
31043;SDS011;17710;52.520;13.352;2023-02-04T02:28:40;1.90;;;0.57;;
31043;SDS011;17710;52.520;13.352;2023-02-04T02:31:07;1.30;;;0.70;;
31043;SDS011;17710;52.520;13.352;2023-02-04T02:33:34;4.03;;;0.77;;
31043;SDS011;17710;52.520;13.352;2023-02-04T02:36:00;3.55;;;0.88;;
31043;SDS011;17710;52.520;13.352;2023-02-04T02:38:27;1.40;;;0.70;;
31043;SDS011;17710;52.520;13.352;2023-02-04T02:40:55;1.33;;;0.60;;
31043;SDS011;17710;52.520;13.352;2023-02-04T02:43:22;3.83;;;0.73;;
31043;SDS011;17710;52.520;13.352;2023-02-04T02:45:50;5.53;;;0.85;;
31043;SDS011;17710;52.520;13.352;2023-02-04T02:48:18;5.05;;;0.80;;
31043;SDS011;17710;52.520;13.352;2023-02-04T02:50:47;4.63;;;1.23;;
31043;SDS011;17710;52.520;13.352;2023-02-04T02:53:14;3.20;;;0.88;;
31043;SDS011;17710;52.520;13.352;2023-02-04T02:55:43;3.35;;;0.80;;
31043;SDS011;17710;52.520;13.352;2023-02-04T02:58:13;7.32;;;1.15;;
31043;SDS011;17710;52.520;13.352;2023-02-04T03:00:42;3.83;;;1.05;;
31043;SDS011;17710;52.520;13.352;2023-02-04T03:03:10;5.85;;;0.68;;
31043;SDS011;17710;52.520;13.352;2023-02-04T03:05:42;3.88;;;0.80;;
31043;SDS011;17710;52.520;13.352;2023-02-04T03:08:12;4.10;;;0.98;;
31043;SDS011;17710;52.520;13.352;2023-02-04T03:10:40;2.95;;;0.77;;
31043;SDS011;17710;52.520;13.352;2023-02-04T03:13:07;3.15;;;1.00;;
31043;SDS011;17710;52.520;13.352;2023-02-04T03:15:36;3.03;;;0.52;;
31043;SDS011;17710;52.520;13.352;2023-02-04T03:18:03;2.22;;;0.73;;
31043;SDS011;17710;52.520;13.352;2023-02-04T03:20:30;3.03;;;0.73;;
31043;SDS011;17710;52.520;13.352;2023-02-04T03:22:58;4.95;;;0.98;;
31043;SDS011;17710;52.520;13.352;2023-02-04T03:25:24;2.80;;;0.60;;
31043;SDS011;17710;52.520;13.352;2023-02-04T03:27:52;3.55;;;0.70;;
31043;SDS011;17710;52.520;13.352;2023-02-04T03:30:20;2.08;;;0.75;;
31043;SDS011;17710;52.520;13.352;2023-02-04T03:32:48;3.10;;;0.70;;
31043;SDS011;17710;52.520;13.352;2023-02-04T03:35:15;1.60;;;0.60;;
31043;SDS011;17710;52.520;13.352;2023-02-04T03:37:42;7.55;;;0.70;;
31043;SDS011;17710;52.520;13.352;2023-02-04T03:40:09;2.25;;;0.77;;
31043;SDS011;17710;52.520;13.352;2023-02-04T03:42:36;1.85;;;0.70;;
31043;SDS011;17710;52.520;13.352;2023-02-04T03:45:03;3.75;;;0.90;;
31043;SDS011;17710;52.520;13.352;2023-02-04T03:47:30;7.28;;;0.90;;
31043;SDS011;17710;52.520;13.352;2023-02-04T03:49:58;4.60;;;0.80;;
31043;SDS011;17710;52.520;13.352;2023-02-04T03:52:24;6.03;;;1.05;;
31043;SDS011;17710;52.520;13.352;2023-02-04T03:54:50;5.25;;;0.82;;
31043;SDS011;17710;52.520;13.352;2023-02-04T03:57:17;3.28;;;0.55;;
31043;SDS011;17710;52.520;13.352;2023-02-04T03:59:43;3.67;;;0.70;;
31043;SDS011;17710;52.520;13.352;2023-02-04T04:02:09;3.97;;;0.57;;
31043;SDS011;17710;52.520;13.352;2023-02-04T04:04:36;5.90;;;0.82;;
31043;SDS011;17710;52.520;13.352;2023-02-04T04:07:04;2.05;;;1.10;;
31043;SDS011;17710;52.520;13.352;2023-02-04T04:09:30;2.83;;;0.70;;
31043;SDS011;17710;52.520;13.352;2023-02-04T04:11:57;3.17;;;0.70;;
31043;SDS011;17710;52.520;13.352;2023-02-04T04:14:23;6.32;;;0.98;;
31043;SDS011;17710;52.520;13.352;2023-02-04T04:16:50;3.55;;;0.82;;
31043;SDS011;17710;52.520;13.352;2023-02-04T04:19:16;1.65;;;0.50;;
31043;SDS011;17710;52.520;13.352;2023-02-04T04:21:43;3.60;;;0.80;;
31043;SDS011;17710;52.520;13.352;2023-02-04T04:24:10;4.88;;;0.70;;
31043;SDS011;17710;52.520;13.352;2023-02-04T04:26:37;5.38;;;0.70;;
31043;SDS011;17710;52.520;13.352;2023-02-04T04:29:03;4.68;;;1.05;;
31043;SDS011;17710;52.520;13.352;2023-02-04T04:31:29;7.55;;;0.70;;
31043;SDS011;17710;52.520;13.352;2023-02-04T04:33:56;3.15;;;0.80;;
31043;SDS011;17710;52.520;13.352;2023-02-04T04:36:22;3.38;;;1.27;;
31043;SDS011;17710;52.520;13.352;2023-02-04T04:38:49;4.18;;;0.88;;
31043;SDS011;17710;52.520;13.352;2023-02-04T04:41:16;2.17;;;0.95;;
31043;SDS011;17710;52.520;13.352;2023-02-04T04:43:43;2.20;;;0.77;;
31043;SDS011;17710;52.520;13.352;2023-02-04T04:46:09;6.57;;;1.23;;
31043;SDS011;17710;52.520;13.352;2023-02-04T04:48:36;3.15;;;0.93;;
31043;SDS011;17710;52.520;13.352;2023-02-04T04:51:02;3.17;;;0.70;;
31043;SDS011;17710;52.520;13.352;2023-02-04T04:53:29;2.42;;;0.80;;
31043;SDS011;17710;52.520;13.352;2023-02-04T04:55:56;8.73;;;2.67;;
31043;SDS011;17710;52.520;13.352;2023-02-04T04:58:24;4.50;;;1.10;;
31043;SDS011;17710;52.520;13.352;2023-02-04T05:00:50;4.25;;;1.00;;
31043;SDS011;17710;52.520;13.352;2023-02-04T05:03:17;5.68;;;0.70;;
31043;SDS011;17710;52.520;13.352;2023-02-04T05:05:43;5.70;;;0.90;;
31043;SDS011;17710;52.520;13.352;2023-02-04T05:08:10;6.57;;;0.95;;
31043;SDS011;17710;52.520;13.352;2023-02-04T05:10:41;3.55;;;1.33;;
31043;SDS011;17710;52.520;13.352;2023-02-04T05:13:08;4.43;;;0.80;;
31043;SDS011;17710;52.520;13.352;2023-02-04T05:15:36;3.35;;;0.90;;
31043;SDS011;17710;52.520;13.352;2023-02-04T05:18:02;6.18;;;0.88;;
31043;SDS011;17710;52.520;13.352;2023-02-04T05:20:29;2.13;;;1.27;;
31043;SDS011;17710;52.520;13.352;2023-02-04T05:22:55;6.93;;;1.20;;
31043;SDS011;17710;52.520;13.352;2023-02-04T05:25:25;7.30;;;0.82;;
31043;SDS011;17710;52.520;13.352;2023-02-04T05:27:51;7.20;;;1.38;;
31043;SDS011;17710;52.520;13.352;2023-02-04T05:30:18;4.22;;;1.40;;
31043;SDS011;17710;52.520;13.352;2023-02-04T05:32:46;3.10;;;1.10;;
31043;SDS011;17710;52.520;13.352;2023-02-04T05:35:12;4.55;;;1.67;;
31043;SDS011;17710;52.520;13.352;2023-02-04T05:37:39;2.22;;;1.05;;
31043;SDS011;17710;52.520;13.352;2023-02-04T05:40:06;3.45;;;0.70;;
31043;SDS011;17710;52.520;13.352;2023-02-04T05:42:33;3.72;;;1.20;;
31043;SDS011;17710;52.520;13.352;2023-02-04T05:44:59;6.75;;;3.35;;
31043;SDS011;17710;52.520;13.352;2023-02-04T05:47:25;5.45;;;1.80;;
31043;SDS011;17710;52.520;13.352;2023-02-04T05:49:53;6.75;;;1.42;;
31043;SDS011;17710;52.520;13.352;2023-02-04T05:52:20;5.47;;;1.17;;
31043;SDS011;17710;52.520;13.352;2023-02-04T05:54:46;5.57;;;0.90;;
31043;SDS011;17710;52.520;13.352;2023-02-04T05:57:12;8.82;;;1.50;;
31043;SDS011;17710;52.520;13.352;2023-02-04T05:59:39;3.05;;;1.10;;
31043;SDS011;17710;52.520;13.352;2023-02-04T06:02:05;2.40;;;0.80;;
31043;SDS011;17710;52.520;13.352;2023-02-04T06:04:32;3.67;;;1.10;;
31043;SDS011;17710;52.520;13.352;2023-02-04T06:06:59;6.50;;;1.00;;
31043;SDS011;17710;52.520;13.352;2023-02-04T06:09:27;5.32;;;1.40;;
31043;SDS011;17710;52.520;13.352;2023-02-04T06:11:54;4.88;;;1.08;;
31043;SDS011;17710;52.520;13.352;2023-02-04T06:14:21;3.88;;;1.20;;
31043;SDS011;17710;52.520;13.352;2023-02-04T06:16:48;6.90;;;2.15;;
31043;SDS011;17710;52.520;13.352;2023-02-04T06:19:14;19.85;;;4.65;;
31043;SDS011;17710;52.520;13.352;2023-02-04T06:21:40;5.57;;;2.38;;
31043;SDS011;17710;52.520;13.352;2023-02-04T06:24:08;5.90;;;1.48;;
31043;SDS011;17710;52.520;13.352;2023-02-04T06:26:35;7.35;;;2.05;;
31043;SDS011;17710;52.520;13.352;2023-02-04T06:29:01;6.50;;;1.40;;
31043;SDS011;17710;52.520;13.352;2023-02-04T06:31:27;3.33;;;1.27;;
31043;SDS011;17710;52.520;13.352;2023-02-04T06:33:54;4.45;;;2.35;;
31043;SDS011;17710;52.520;13.352;2023-02-04T06:36:20;3.60;;;1.05;;
31043;SDS011;17710;52.520;13.352;2023-02-04T06:38:46;3.95;;;1.50;;
31043;SDS011;17710;52.520;13.352;2023-02-04T06:41:14;7.97;;;3.50;;
31043;SDS011;17710;52.520;13.352;2023-02-04T06:43:40;10.00;;;4.95;;
31043;SDS011;17710;52.520;13.352;2023-02-04T06:46:07;18.50;;;7.07;;
31043;SDS011;17710;52.520;13.352;2023-02-04T06:48:33;38.30;;;10.25;;
31043;SDS011;17710;52.520;13.352;2023-02-04T06:51:00;15.68;;;6.00;;
31043;SDS011;17710;52.520;13.352;2023-02-04T06:53:26;14.05;;;5.50;;
31043;SDS011;17710;52.520;13.352;2023-02-04T06:55:52;5.72;;;2.25;;
31043;SDS011;17710;52.520;13.352;2023-02-04T06:58:20;12.93;;;4.45;;
31043;SDS011;17710;52.520;13.352;2023-02-04T07:00:47;8.63;;;2.25;;
31043;SDS011;17710;52.520;13.352;2023-02-04T07:03:13;9.35;;;2.22;;
31043;SDS011;17710;52.520;13.352;2023-02-04T07:05:40;11.80;;;4.25;;
31043;SDS011;17710;52.520;13.352;2023-02-04T07:08:06;15.05;;;5.38;;
31043;SDS011;17710;52.520;13.352;2023-02-04T07:10:33;7.00;;;2.88;;
31043;SDS011;17710;52.520;13.352;2023-02-04T07:12:59;9.68;;;4.28;;
31043;SDS011;17710;52.520;13.352;2023-02-04T07:15:27;6.25;;;1.90;;
31043;SDS011;17710;52.520;13.352;2023-02-04T07:17:53;4.07;;;1.75;;
31043;SDS011;17710;52.520;13.352;2023-02-04T07:20:20;6.63;;;1.73;;
31043;SDS011;17710;52.520;13.352;2023-02-04T07:22:46;4.68;;;1.75;;
31043;SDS011;17710;52.520;13.352;2023-02-04T07:25:12;6.25;;;1.75;;
31043;SDS011;17710;52.520;13.352;2023-02-04T07:27:41;6.40;;;1.58;;
31043;SDS011;17710;52.520;13.352;2023-02-04T07:30:09;4.63;;;1.20;;
31043;SDS011;17710;52.520;13.352;2023-02-04T07:32:37;6.22;;;2.85;;
31043;SDS011;17710;52.520;13.352;2023-02-04T07:35:04;7.80;;;1.52;;
31043;SDS011;17710;52.520;13.352;2023-02-04T07:37:31;4.25;;;1.50;;
31043;SDS011;17710;52.520;13.352;2023-02-04T07:39:58;7.93;;;2.25;;
31043;SDS011;17710;52.520;13.352;2023-02-04T07:42:24;5.60;;;2.15;;
31043;SDS011;17710;52.520;13.352;2023-02-04T07:44:50;5.90;;;2.08;;
31043;SDS011;17710;52.520;13.352;2023-02-04T07:47:17;4.70;;;1.52;;
31043;SDS011;17710;52.520;13.352;2023-02-04T07:49:44;5.03;;;1.70;;
31043;SDS011;17710;52.520;13.352;2023-02-04T07:52:11;4.45;;;1.30;;
31043;SDS011;17710;52.520;13.352;2023-02-04T07:54:37;3.65;;;1.05;;
31043;SDS011;17710;52.520;13.352;2023-02-04T07:57:04;7.47;;;1.75;;
31043;SDS011;17710;52.520;13.352;2023-02-04T07:59:30;7.05;;;1.05;;
31043;SDS011;17710;52.520;13.352;2023-02-04T08:01:56;3.33;;;1.42;;
31043;SDS011;17710;52.520;13.352;2023-02-04T08:04:23;5.75;;;1.30;;
31043;SDS011;17710;52.520;13.352;2023-02-04T08:06:50;4.57;;;1.42;;
31043;SDS011;17710;52.520;13.352;2023-02-04T08:09:17;4.15;;;1.83;;
31043;SDS011;17710;52.520;13.352;2023-02-04T08:11:43;6.55;;;1.90;;
31043;SDS011;17710;52.520;13.352;2023-02-04T08:14:10;8.50;;;1.30;;
31043;SDS011;17710;52.520;13.352;2023-02-04T08:16:37;4.20;;;1.80;;
31043;SDS011;17710;52.520;13.352;2023-02-04T08:19:04;7.18;;;1.85;;
31043;SDS011;17710;52.520;13.352;2023-02-04T08:21:31;4.57;;;1.50;;
31043;SDS011;17710;52.520;13.352;2023-02-04T08:23:58;6.38;;;2.45;;
31043;SDS011;17710;52.520;13.352;2023-02-04T08:26:25;9.07;;;2.10;;
31043;SDS011;17710;52.520;13.352;2023-02-04T08:28:51;8.52;;;2.45;;
31043;SDS011;17710;52.520;13.352;2023-02-04T08:31:18;5.97;;;1.63;;
31043;SDS011;17710;52.520;13.352;2023-02-04T08:33:44;7.78;;;2.50;;
31043;SDS011;17710;52.520;13.352;2023-02-04T08:36:10;7.05;;;1.17;;
31043;SDS011;17710;52.520;13.352;2023-02-04T08:38:40;4.00;;;1.38;;
31043;SDS011;17710;52.520;13.352;2023-02-04T08:41:09;6.40;;;1.63;;
31043;SDS011;17710;52.520;13.352;2023-02-04T08:43:36;2.67;;;1.50;;
31043;SDS011;17710;52.520;13.352;2023-02-04T08:46:03;3.17;;;1.38;;
31043;SDS011;17710;52.520;13.352;2023-02-04T08:48:30;5.85;;;1.75;;
31043;SDS011;17710;52.520;13.352;2023-02-04T08:50:57;4.18;;;1.20;;
31043;SDS011;17710;52.520;13.352;2023-02-04T08:53:23;7.40;;;1.15;;
31043;SDS011;17710;52.520;13.352;2023-02-04T08:55:50;9.20;;;1.40;;
31043;SDS011;17710;52.520;13.352;2023-02-04T08:58:17;3.45;;;1.00;;
31043;SDS011;17710;52.520;13.352;2023-02-04T09:00:44;7.93;;;1.45;;
31043;SDS011;17710;52.520;13.352;2023-02-04T09:03:10;10.38;;;2.05;;
31043;SDS011;17710;52.520;13.352;2023-02-04T09:05:37;6.82;;;1.65;;
31043;SDS011;17710;52.520;13.352;2023-02-04T09:08:03;5.93;;;1.25;;
31043;SDS011;17710;52.520;13.352;2023-02-04T09:10:30;6.03;;;1.70;;
31043;SDS011;17710;52.520;13.352;2023-02-04T09:12:57;5.63;;;1.85;;
31043;SDS011;17710;52.520;13.352;2023-02-04T09:15:24;8.50;;;1.73;;
31043;SDS011;17710;52.520;13.352;2023-02-04T09:17:51;11.23;;;2.30;;
31043;SDS011;17710;52.520;13.352;2023-02-04T09:20:25;8.45;;;1.60;;
31043;SDS011;17710;52.520;13.352;2023-02-04T09:22:53;6.72;;;1.60;;
31043;SDS011;17710;52.520;13.352;2023-02-04T09:25:19;9.00;;;1.92;;
31043;SDS011;17710;52.520;13.352;2023-02-04T09:27:45;5.60;;;1.50;;
31043;SDS011;17710;52.520;13.352;2023-02-04T09:30:12;4.28;;;1.30;;
31043;SDS011;17710;52.520;13.352;2023-02-04T09:32:40;5.10;;;1.42;;
31043;SDS011;17710;52.520;13.352;2023-02-04T09:35:07;7.13;;;1.30;;
31043;SDS011;17710;52.520;13.352;2023-02-04T09:37:33;5.68;;;1.10;;
31043;SDS011;17710;52.520;13.352;2023-02-04T09:40:00;3.67;;;1.48;;
31043;SDS011;17710;52.520;13.352;2023-02-04T09:42:28;6.07;;;1.52;;
31043;SDS011;17710;52.520;13.352;2023-02-04T09:44:55;4.05;;;0.90;;
31043;SDS011;17710;52.520;13.352;2023-02-04T09:47:22;4.22;;;0.98;;
31043;SDS011;17710;52.520;13.352;2023-02-04T09:49:52;5.53;;;1.02;;
31043;SDS011;17710;52.520;13.352;2023-02-04T09:52:18;1.50;;;0.60;;
31043;SDS011;17710;52.520;13.352;2023-02-04T09:54:48;4.95;;;1.20;;
31043;SDS011;17710;52.520;13.352;2023-02-04T09:57:16;4.05;;;0.80;;
31043;SDS011;17710;52.520;13.352;2023-02-04T09:59:46;3.38;;;1.25;;
31043;SDS011;17710;52.520;13.352;2023-02-04T10:02:19;3.45;;;0.90;;
31043;SDS011;17710;52.520;13.352;2023-02-04T10:04:47;4.97;;;0.80;;
31043;SDS011;17710;52.520;13.352;2023-02-04T10:07:16;4.75;;;1.50;;
31043;SDS011;17710;52.520;13.352;2023-02-04T10:09:49;2.25;;;1.25;;
31043;SDS011;17710;52.520;13.352;2023-02-04T10:12:16;3.30;;;1.00;;
31043;SDS011;17710;52.520;13.352;2023-02-04T10:14:43;4.65;;;1.40;;
31043;SDS011;17710;52.520;13.352;2023-02-04T10:17:17;4.75;;;1.00;;
31043;SDS011;17710;52.520;13.352;2023-02-04T10:19:47;2.92;;;0.75;;
31043;SDS011;17710;52.520;13.352;2023-02-04T10:22:16;2.63;;;0.80;;
31043;SDS011;17710;52.520;13.352;2023-02-04T10:24:44;9.45;;;1.02;;
31043;SDS011;17710;52.520;13.352;2023-02-04T10:27:11;4.35;;;0.90;;
31043;SDS011;17710;52.520;13.352;2023-02-04T10:29:40;3.33;;;0.70;;
31043;SDS011;17710;52.520;13.352;2023-02-04T10:34:57;5.13;;;0.82;;
31043;SDS011;17710;52.520;13.352;2023-02-04T10:37:26;6.97;;;1.20;;
31043;SDS011;17710;52.520;13.352;2023-02-04T10:39:53;3.30;;;0.80;;
31043;SDS011;17710;52.520;13.352;2023-02-04T10:42:20;2.67;;;0.80;;
31043;SDS011;17710;52.520;13.352;2023-02-04T10:44:48;5.65;;;0.68;;
31043;SDS011;17710;52.520;13.352;2023-02-04T10:47:16;4.35;;;0.80;;
31043;SDS011;17710;52.520;13.352;2023-02-04T10:49:51;1.88;;;0.85;;
31043;SDS011;17710;52.520;13.352;2023-02-04T10:52:18;5.30;;;2.08;;
31043;SDS011;17710;52.520;13.352;2023-02-04T10:54:48;3.75;;;1.00;;
31043;SDS011;17710;52.520;13.352;2023-02-04T10:57:16;1.35;;;0.75;;
31043;SDS011;17710;52.520;13.352;2023-02-04T10:59:44;2.85;;;0.50;;
31043;SDS011;17710;52.520;13.352;2023-02-04T11:02:26;2.25;;;0.60;;
31043;SDS011;17710;52.520;13.352;2023-02-04T11:04:57;2.95;;;0.77;;
31043;SDS011;17710;52.520;13.352;2023-02-04T11:07:24;1.92;;;0.55;;
31043;SDS011;17710;52.520;13.352;2023-02-04T11:09:52;1.70;;;0.60;;
31043;SDS011;17710;52.520;13.352;2023-02-04T11:12:20;3.20;;;0.40;;
31043;SDS011;17710;52.520;13.352;2023-02-04T11:14:53;3.05;;;0.40;;
31043;SDS011;17710;52.520;13.352;2023-02-04T11:17:20;3.00;;;0.60;;
31043;SDS011;17710;52.520;13.352;2023-02-04T11:19:47;3.47;;;1.10;;
31043;SDS011;17710;52.520;13.352;2023-02-04T11:22:21;4.70;;;0.88;;
31043;SDS011;17710;52.520;13.352;2023-02-04T11:24:49;1.73;;;0.60;;
31043;SDS011;17710;52.520;13.352;2023-02-04T11:27:22;2.30;;;0.50;;
31043;SDS011;17710;52.520;13.352;2023-02-04T11:29:51;3.83;;;0.40;;
31043;SDS011;17710;52.520;13.352;2023-02-04T11:32:31;3.53;;;0.50;;
31043;SDS011;17710;52.520;13.352;2023-02-04T11:35:06;2.78;;;0.75;;
31043;SDS011;17710;52.520;13.352;2023-02-04T11:37:47;4.88;;;0.75;;
31043;SDS011;17710;52.520;13.352;2023-02-04T11:40:22;5.32;;;1.42;;
31043;SDS011;17710;52.520;13.352;2023-02-04T11:42:56;1.95;;;0.60;;
31043;SDS011;17710;52.520;13.352;2023-02-04T11:45:25;2.67;;;0.40;;
31043;SDS011;17710;52.520;13.352;2023-02-04T11:47:55;4.88;;;0.70;;
31043;SDS011;17710;52.520;13.352;2023-02-04T11:50:25;3.20;;;0.43;;
31043;SDS011;17710;52.520;13.352;2023-02-04T11:52:54;1.90;;;0.70;;
31043;SDS011;17710;52.520;13.352;2023-02-04T11:55:21;2.70;;;0.70;;
31043;SDS011;17710;52.520;13.352;2023-02-04T11:57:49;1.73;;;0.38;;
31043;SDS011;17710;52.520;13.352;2023-02-04T12:00:20;1.33;;;0.50;;
31043;SDS011;17710;52.520;13.352;2023-02-04T12:02:48;2.70;;;0.38;;
31043;SDS011;17710;52.520;13.352;2023-02-04T12:05:16;3.55;;;0.73;;
31043;SDS011;17710;52.520;13.352;2023-02-04T12:07:44;2.88;;;0.60;;
31043;SDS011;17710;52.520;13.352;2023-02-04T12:10:18;1.00;;;0.38;;
31043;SDS011;17710;52.520;13.352;2023-02-04T12:12:49;5.05;;;1.00;;
31043;SDS011;17710;52.520;13.352;2023-02-04T12:15:21;2.92;;;0.77;;
31043;SDS011;17710;52.520;13.352;2023-02-04T12:17:59;1.27;;;0.50;;
31043;SDS011;17710;52.520;13.352;2023-02-04T12:20:26;4.32;;;0.65;;
31043;SDS011;17710;52.520;13.352;2023-02-04T12:22:52;3.17;;;0.82;;
31043;SDS011;17710;52.520;13.352;2023-02-04T12:25:18;2.30;;;0.55;;
31043;SDS011;17710;52.520;13.352;2023-02-04T12:27:45;5.38;;;1.00;;
31043;SDS011;17710;52.520;13.352;2023-02-04T12:30:11;0.88;;;0.30;;
31043;SDS011;17710;52.520;13.352;2023-02-04T12:32:39;1.25;;;0.30;;
31043;SDS011;17710;52.520;13.352;2023-02-04T12:35:06;2.83;;;0.57;;
31043;SDS011;17710;52.520;13.352;2023-02-04T12:37:33;1.63;;;0.30;;
31043;SDS011;17710;52.520;13.352;2023-02-04T12:39:59;1.85;;;0.40;;
31043;SDS011;17710;52.520;13.352;2023-02-04T12:42:25;1.95;;;0.40;;
31043;SDS011;17710;52.520;13.352;2023-02-04T12:44:52;1.05;;;0.40;;
31043;SDS011;17710;52.520;13.352;2023-02-04T12:47:18;0.20;;;0.10;;
31043;SDS011;17710;52.520;13.352;2023-02-04T12:49:46;3.17;;;0.95;;
31043;SDS011;17710;52.520;13.352;2023-02-04T12:52:12;1.92;;;0.38;;
31043;SDS011;17710;52.520;13.352;2023-02-04T12:54:39;1.73;;;0.65;;
31043;SDS011;17710;52.520;13.352;2023-02-04T12:57:07;3.97;;;1.02;;
31043;SDS011;17710;52.520;13.352;2023-02-04T12:59:35;3.50;;;0.60;;
31043;SDS011;17710;52.520;13.352;2023-02-04T13:02:02;2.17;;;1.00;;
31043;SDS011;17710;52.520;13.352;2023-02-04T13:04:28;2.60;;;0.90;;
31043;SDS011;17710;52.520;13.352;2023-02-04T13:06:56;1.13;;;0.50;;
31043;SDS011;17710;52.520;13.352;2023-02-04T13:09:22;4.13;;;0.77;;
31043;SDS011;17710;52.520;13.352;2023-02-04T13:11:50;3.50;;;1.52;;
31043;SDS011;17710;52.520;13.352;2023-02-04T13:14:18;6.13;;;0.75;;
31043;SDS011;17710;52.520;13.352;2023-02-04T13:16:45;6.13;;;0.63;;
31043;SDS011;17710;52.520;13.352;2023-02-04T13:19:12;3.83;;;0.63;;
31043;SDS011;17710;52.520;13.352;2023-02-04T13:21:38;2.97;;;0.88;;
31043;SDS011;17710;52.520;13.352;2023-02-04T13:24:06;1.92;;;0.52;;
31043;SDS011;17710;52.520;13.352;2023-02-04T13:26:32;25.65;;;1.42;;
31043;SDS011;17710;52.520;13.352;2023-02-04T13:29:00;3.05;;;1.02;;
31043;SDS011;17710;52.520;13.352;2023-02-04T13:31:26;1.45;;;0.50;;
31043;SDS011;17710;52.520;13.352;2023-02-04T13:33:53;2.00;;;0.50;;
31043;SDS011;17710;52.520;13.352;2023-02-04T13:36:19;1.20;;;0.50;;
31043;SDS011;17710;52.520;13.352;2023-02-04T13:38:46;4.82;;;1.60;;
31043;SDS011;17710;52.520;13.352;2023-02-04T13:41:13;5.18;;;1.48;;
31043;SDS011;17710;52.520;13.352;2023-02-04T13:43:40;3.53;;;0.73;;
31043;SDS011;17710;52.520;13.352;2023-02-04T13:46:06;3.58;;;0.63;;
31043;SDS011;17710;52.520;13.352;2023-02-04T13:48:33;3.13;;;0.68;;
31043;SDS011;17710;52.520;13.352;2023-02-04T13:51:00;1.60;;;0.43;;
31043;SDS011;17710;52.520;13.352;2023-02-04T13:53:26;2.97;;;0.43;;
31043;SDS011;17710;52.520;13.352;2023-02-04T13:55:55;1.55;;;0.82;;
31043;SDS011;17710;52.520;13.352;2023-02-04T13:58:22;2.55;;;0.70;;
31043;SDS011;17710;52.520;13.352;2023-02-04T14:00:49;1.67;;;0.68;;
31043;SDS011;17710;52.520;13.352;2023-02-04T14:03:21;2.20;;;0.70;;
31043;SDS011;17710;52.520;13.352;2023-02-04T14:05:47;5.25;;;0.60;;
31043;SDS011;17710;52.520;13.352;2023-02-04T14:08:14;3.22;;;0.95;;
31043;SDS011;17710;52.520;13.352;2023-02-04T14:10:40;3.75;;;0.50;;
31043;SDS011;17710;52.520;13.352;2023-02-04T14:13:07;0.60;;;0.40;;
31043;SDS011;17710;52.520;13.352;2023-02-04T14:15:34;1.40;;;0.40;;
31043;SDS011;17710;52.520;13.352;2023-02-04T14:18:02;1.67;;;0.77;;
31043;SDS011;17710;52.520;13.352;2023-02-04T14:20:28;3.00;;;0.73;;
31043;SDS011;17710;52.520;13.352;2023-02-04T14:22:55;3.92;;;1.38;;
31043;SDS011;17710;52.520;13.352;2023-02-04T14:25:22;3.97;;;1.10;;
31043;SDS011;17710;52.520;13.352;2023-02-04T14:27:48;1.58;;;0.52;;
31043;SDS011;17710;52.520;13.352;2023-02-04T14:30:16;3.50;;;0.50;;
31043;SDS011;17710;52.520;13.352;2023-02-04T14:32:45;1.60;;;0.52;;
31043;SDS011;17710;52.520;13.352;2023-02-04T14:35:12;0.73;;;0.35;;
31043;SDS011;17710;52.520;13.352;2023-02-04T14:37:40;1.35;;;0.80;;